sensor_id;sensor_type;location;lat;lon;timestamp;P1;durP1;ratioP1;P2;durP2;ratioP2
68310;SDS011;55157;51.036;17.058;2023-08-21T00:02:05;14.05;;;8.88;;
68310;SDS011;55157;51.036;17.058;2023-08-21T00:04:30;23.65;;;8.27;;
68310;SDS011;55157;51.036;17.058;2023-08-21T00:06:55;12.38;;;8.20;;
68310;SDS011;55157;51.036;17.058;2023-08-21T00:09:22;17.88;;;10.07;;
68310;SDS011;55157;51.036;17.058;2023-08-21T00:11:47;17.15;;;10.35;;
68310;SDS011;55157;51.036;17.058;2023-08-21T00:14:12;12.85;;;8.85;;
68310;SDS011;55157;51.036;17.058;2023-08-21T00:16:38;18.70;;;9.50;;
68310;SDS011;55157;51.036;17.058;2023-08-21T00:19:03;12.90;;;10.05;;
68310;SDS011;55157;51.036;17.058;2023-08-21T00:21:28;15.15;;;9.88;;
68310;SDS011;55157;51.036;17.058;2023-08-21T00:23:54;16.95;;;9.02;;
68310;SDS011;55157;51.036;17.058;2023-08-21T00:26:21;26.15;;;9.75;;
68310;SDS011;55157;51.036;17.058;2023-08-21T00:28:46;12.23;;;8.32;;
68310;SDS011;55157;51.036;17.058;2023-08-21T00:31:11;12.55;;;8.60;;
68310;SDS011;55157;51.036;17.058;2023-08-21T00:33:37;24.80;;;9.93;;
68310;SDS011;55157;51.036;17.058;2023-08-21T00:36:02;12.05;;;8.80;;
68310;SDS011;55157;51.036;17.058;2023-08-21T00:38:27;18.10;;;9.57;;
68310;SDS011;55157;51.036;17.058;2023-08-21T00:40:53;15.45;;;8.82;;
68310;SDS011;55157;51.036;17.058;2023-08-21T00:43:19;14.77;;;8.57;;
68310;SDS011;55157;51.036;17.058;2023-08-21T00:45:45;16.20;;;8.35;;
68310;SDS011;55157;51.036;17.058;2023-08-21T00:48:11;14.73;;;9.85;;
68310;SDS011;55157;51.036;17.058;2023-08-21T00:50:36;14.52;;;9.43;;
68310;SDS011;55157;51.036;17.058;2023-08-21T00:53:02;14.05;;;10.07;;
68310;SDS011;55157;51.036;17.058;2023-08-21T00:55:27;11.10;;;10.00;;
68310;SDS011;55157;51.036;17.058;2023-08-21T00:57:52;12.13;;;9.18;;
68310;SDS011;55157;51.036;17.058;2023-08-21T01:00:20;12.93;;;9.07;;
68310;SDS011;55157;51.036;17.058;2023-08-21T01:02:45;13.65;;;10.50;;
68310;SDS011;55157;51.036;17.058;2023-08-21T01:05:11;14.02;;;10.23;;
68310;SDS011;55157;51.036;17.058;2023-08-21T01:07:38;14.85;;;10.23;;
68310;SDS011;55157;51.036;17.058;2023-08-21T01:10:07;12.98;;;10.70;;
68310;SDS011;55157;51.036;17.058;2023-08-21T01:12:35;17.90;;;10.93;;
68310;SDS011;55157;51.036;17.058;2023-08-21T01:15:02;13.85;;;11.55;;
68310;SDS011;55157;51.036;17.058;2023-08-21T01:17:30;13.02;;;9.13;;
68310;SDS011;55157;51.036;17.058;2023-08-21T01:19:55;15.27;;;10.77;;
68310;SDS011;55157;51.036;17.058;2023-08-21T01:22:24;13.55;;;11.40;;
68310;SDS011;55157;51.036;17.058;2023-08-21T01:24:51;12.63;;;10.30;;
68310;SDS011;55157;51.036;17.058;2023-08-21T01:27:16;14.13;;;10.65;;
68310;SDS011;55157;51.036;17.058;2023-08-21T01:29:42;13.50;;;10.18;;
68310;SDS011;55157;51.036;17.058;2023-08-21T01:32:09;15.30;;;9.68;;
68310;SDS011;55157;51.036;17.058;2023-08-21T01:34:36;21.50;;;12.70;;
68310;SDS011;55157;51.036;17.058;2023-08-21T01:37:02;14.00;;;10.27;;
68310;SDS011;55157;51.036;17.058;2023-08-21T01:39:28;12.52;;;10.23;;
68310;SDS011;55157;51.036;17.058;2023-08-21T01:41:55;17.13;;;11.32;;
68310;SDS011;55157;51.036;17.058;2023-08-21T01:44:20;16.05;;;9.30;;
68310;SDS011;55157;51.036;17.058;2023-08-21T01:46:45;16.17;;;10.00;;
68310;SDS011;55157;51.036;17.058;2023-08-21T01:49:10;14.20;;;11.00;;
68310;SDS011;55157;51.036;17.058;2023-08-21T01:51:35;11.70;;;10.40;;
68310;SDS011;55157;51.036;17.058;2023-08-21T01:54:01;15.20;;;10.23;;
68310;SDS011;55157;51.036;17.058;2023-08-21T01:56:26;15.47;;;10.30;;
68310;SDS011;55157;51.036;17.058;2023-08-21T01:58:53;11.10;;;9.95;;
68310;SDS011;55157;51.036;17.058;2023-08-21T02:01:18;12.48;;;10.73;;
68310;SDS011;55157;51.036;17.058;2023-08-21T02:03:43;13.50;;;9.83;;
68310;SDS011;55157;51.036;17.058;2023-08-21T02:06:08;15.80;;;10.00;;
68310;SDS011;55157;51.036;17.058;2023-08-21T02:08:34;14.30;;;10.95;;
68310;SDS011;55157;51.036;17.058;2023-08-21T02:10:59;22.80;;;11.90;;
68310;SDS011;55157;51.036;17.058;2023-08-21T02:13:24;12.82;;;10.73;;
68310;SDS011;55157;51.036;17.058;2023-08-21T02:15:51;14.57;;;11.68;;
68310;SDS011;55157;51.036;17.058;2023-08-21T02:18:16;15.82;;;11.20;;
68310;SDS011;55157;51.036;17.058;2023-08-21T02:20:41;17.75;;;10.88;;
68310;SDS011;55157;51.036;17.058;2023-08-21T02:23:07;15.32;;;11.43;;
68310;SDS011;55157;51.036;17.058;2023-08-21T02:25:32;18.65;;;11.55;;
68310;SDS011;55157;51.036;17.058;2023-08-21T02:27:57;14.40;;;11.40;;
68310;SDS011;55157;51.036;17.058;2023-08-21T02:30:22;14.07;;;11.43;;
68310;SDS011;55157;51.036;17.058;2023-08-21T02:32:49;15.93;;;11.60;;
68310;SDS011;55157;51.036;17.058;2023-08-21T02:35:14;18.10;;;11.95;;
68310;SDS011;55157;51.036;17.058;2023-08-21T02:37:40;28.70;;;13.88;;
68310;SDS011;55157;51.036;17.058;2023-08-21T02:40:05;14.80;;;12.52;;
68310;SDS011;55157;51.036;17.058;2023-08-21T02:42:31;15.02;;;13.43;;
68310;SDS011;55157;51.036;17.058;2023-08-21T02:44:56;23.95;;;16.02;;
68310;SDS011;55157;51.036;17.058;2023-08-21T02:47:21;24.53;;;16.67;;
68310;SDS011;55157;51.036;17.058;2023-08-21T02:49:48;21.52;;;16.85;;
68310;SDS011;55157;51.036;17.058;2023-08-21T02:52:13;19.65;;;16.30;;
68310;SDS011;55157;51.036;17.058;2023-08-21T02:54:38;19.23;;;16.65;;
68310;SDS011;55157;51.036;17.058;2023-08-21T02:57:04;17.75;;;15.55;;
68310;SDS011;55157;51.036;17.058;2023-08-21T02:59:29;13.88;;;12.40;;
68310;SDS011;55157;51.036;17.058;2023-08-21T03:01:54;13.13;;;10.65;;
68310;SDS011;55157;51.036;17.058;2023-08-21T03:04:19;12.60;;;10.32;;
68310;SDS011;55157;51.036;17.058;2023-08-21T03:06:46;13.27;;;10.25;;
68310;SDS011;55157;51.036;17.058;2023-08-21T03:09:11;13.00;;;10.38;;
68310;SDS011;55157;51.036;17.058;2023-08-21T03:11:37;10.33;;;9.13;;
68310;SDS011;55157;51.036;17.058;2023-08-21T03:14:02;15.23;;;8.30;;
68310;SDS011;55157;51.036;17.058;2023-08-21T03:16:27;8.70;;;6.03;;
68310;SDS011;55157;51.036;17.058;2023-08-21T03:18:56;8.02;;;6.25;;
68310;SDS011;55157;51.036;17.058;2023-08-21T03:21:21;9.13;;;4.80;;
68310;SDS011;55157;51.036;17.058;2023-08-21T03:23:48;7.85;;;4.72;;
68310;SDS011;55157;51.036;17.058;2023-08-21T03:26:13;6.10;;;4.53;;
68310;SDS011;55157;51.036;17.058;2023-08-21T03:28:38;4.30;;;3.70;;
68310;SDS011;55157;51.036;17.058;2023-08-21T03:31:04;4.63;;;3.65;;
68310;SDS011;55157;51.036;17.058;2023-08-21T03:33:29;7.90;;;4.43;;
68310;SDS011;55157;51.036;17.058;2023-08-21T03:35:54;8.05;;;3.97;;
68310;SDS011;55157;51.036;17.058;2023-08-21T03:38:19;10.13;;;4.53;;
68310;SDS011;55157;51.036;17.058;2023-08-21T03:40:46;12.37;;;4.73;;
68310;SDS011;55157;51.036;17.058;2023-08-21T03:43:11;10.82;;;3.78;;
68310;SDS011;55157;51.036;17.058;2023-08-21T03:45:37;5.45;;;3.80;;
68310;SDS011;55157;51.036;17.058;2023-08-21T03:48:02;15.85;;;5.10;;
68310;SDS011;55157;51.036;17.058;2023-08-21T03:50:28;8.77;;;4.38;;
68310;SDS011;55157;51.036;17.058;2023-08-21T03:52:53;8.48;;;4.75;;
68310;SDS011;55157;51.036;17.058;2023-08-21T03:55:18;6.10;;;4.33;;
68310;SDS011;55157;51.036;17.058;2023-08-21T03:57:45;11.57;;;5.90;;
68310;SDS011;55157;51.036;17.058;2023-08-21T04:00:10;12.35;;;6.80;;
68310;SDS011;55157;51.036;17.058;2023-08-21T04:02:36;11.30;;;7.63;;
68310;SDS011;55157;51.036;17.058;2023-08-21T04:05:01;15.75;;;8.13;;
68310;SDS011;55157;51.036;17.058;2023-08-21T04:07:26;9.60;;;8.70;;
68310;SDS011;55157;51.036;17.058;2023-08-21T04:09:51;12.50;;;9.17;;
68310;SDS011;55157;51.036;17.058;2023-08-21T04:12:17;12.35;;;10.00;;
68310;SDS011;55157;51.036;17.058;2023-08-21T04:14:43;13.57;;;10.88;;
68310;SDS011;55157;51.036;17.058;2023-08-21T04:17:09;13.30;;;10.38;;
68310;SDS011;55157;51.036;17.058;2023-08-21T04:19:34;11.82;;;10.52;;
68310;SDS011;55157;51.036;17.058;2023-08-21T04:21:59;16.85;;;12.95;;
68310;SDS011;55157;51.036;17.058;2023-08-21T04:24:24;14.63;;;12.95;;
68310;SDS011;55157;51.036;17.058;2023-08-21T04:26:50;14.38;;;12.15;;
68310;SDS011;55157;51.036;17.058;2023-08-21T04:29:15;15.10;;;12.82;;
68310;SDS011;55157;51.036;17.058;2023-08-21T04:31:42;16.60;;;11.85;;
68310;SDS011;55157;51.036;17.058;2023-08-21T04:34:07;18.08;;;12.60;;
68310;SDS011;55157;51.036;17.058;2023-08-21T04:36:32;15.82;;;11.85;;
68310;SDS011;55157;51.036;17.058;2023-08-21T04:38:57;16.63;;;12.80;;
68310;SDS011;55157;51.036;17.058;2023-08-21T04:41:23;18.40;;;12.00;;
68310;SDS011;55157;51.036;17.058;2023-08-21T04:43:48;12.73;;;11.43;;
68310;SDS011;55157;51.036;17.058;2023-08-21T04:46:13;13.60;;;11.95;;
68310;SDS011;55157;51.036;17.058;2023-08-21T04:48:40;12.88;;;10.55;;
68310;SDS011;55157;51.036;17.058;2023-08-21T04:51:05;13.10;;;11.07;;
68310;SDS011;55157;51.036;17.058;2023-08-21T04:53:31;13.40;;;11.88;;
68310;SDS011;55157;51.036;17.058;2023-08-21T04:55:58;13.70;;;11.65;;
68310;SDS011;55157;51.036;17.058;2023-08-21T04:58:23;15.07;;;10.85;;
68310;SDS011;55157;51.036;17.058;2023-08-21T05:00:48;14.25;;;11.07;;
68310;SDS011;55157;51.036;17.058;2023-08-21T05:03:14;11.50;;;10.30;;
68310;SDS011;55157;51.036;17.058;2023-08-21T05:05:40;12.45;;;10.75;;
68310;SDS011;55157;51.036;17.058;2023-08-21T05:08:06;15.95;;;9.77;;
68310;SDS011;55157;51.036;17.058;2023-08-21T05:10:31;12.40;;;9.93;;
68310;SDS011;55157;51.036;17.058;2023-08-21T05:12:56;11.90;;;10.70;;
68310;SDS011;55157;51.036;17.058;2023-08-21T05:15:22;11.30;;;10.13;;
68310;SDS011;55157;51.036;17.058;2023-08-21T05:17:47;13.25;;;11.05;;
68310;SDS011;55157;51.036;17.058;2023-08-21T05:20:12;13.48;;;11.48;;
68310;SDS011;55157;51.036;17.058;2023-08-21T05:22:39;14.40;;;11.07;;
68310;SDS011;55157;51.036;17.058;2023-08-21T05:25:04;12.93;;;11.52;;
68310;SDS011;55157;51.036;17.058;2023-08-21T05:27:30;13.93;;;12.45;;
68310;SDS011;55157;51.036;17.058;2023-08-21T05:29:55;17.08;;;11.70;;
68310;SDS011;55157;51.036;17.058;2023-08-21T05:32:20;14.18;;;12.73;;
68310;SDS011;55157;51.036;17.058;2023-08-21T05:34:45;14.27;;;12.80;;
68310;SDS011;55157;51.036;17.058;2023-08-21T05:37:11;14.52;;;12.50;;
68310;SDS011;55157;51.036;17.058;2023-08-21T05:39:37;15.95;;;13.00;;
68310;SDS011;55157;51.036;17.058;2023-08-21T05:42:03;13.45;;;12.10;;
68310;SDS011;55157;51.036;17.058;2023-08-21T05:44:28;14.70;;;13.18;;
68310;SDS011;55157;51.036;17.058;2023-08-21T05:46:54;14.25;;;12.85;;
68310;SDS011;55157;51.036;17.058;2023-08-21T05:49:19;20.35;;;14.20;;
68310;SDS011;55157;51.036;17.058;2023-08-21T05:51:44;14.80;;;12.17;;
68310;SDS011;55157;51.036;17.058;2023-08-21T05:54:09;15.82;;;12.70;;
68310;SDS011;55157;51.036;17.058;2023-08-21T05:56:36;15.20;;;11.30;;
68310;SDS011;55157;51.036;17.058;2023-08-21T05:59:01;12.75;;;11.32;;
68310;SDS011;55157;51.036;17.058;2023-08-21T06:01:26;13.73;;;10.93;;
68310;SDS011;55157;51.036;17.058;2023-08-21T06:03:52;12.13;;;10.65;;
68310;SDS011;55157;51.036;17.058;2023-08-21T06:06:17;14.63;;;10.98;;
68310;SDS011;55157;51.036;17.058;2023-08-21T06:08:42;12.27;;;11.02;;
68310;SDS011;55157;51.036;17.058;2023-08-21T06:11:07;12.63;;;10.57;;
68310;SDS011;55157;51.036;17.058;2023-08-21T06:13:34;10.57;;;9.07;;
68310;SDS011;55157;51.036;17.058;2023-08-21T06:15:59;9.98;;;8.18;;
68310;SDS011;55157;51.036;17.058;2023-08-21T06:18:25;7.60;;;6.80;;
68310;SDS011;55157;51.036;17.058;2023-08-21T06:20:50;9.77;;;6.53;;
68310;SDS011;55157;51.036;17.058;2023-08-21T06:23:15;49.78;;;8.70;;
68310;SDS011;55157;51.036;17.058;2023-08-21T06:25:41;9.43;;;6.70;;
68310;SDS011;55157;51.036;17.058;2023-08-21T06:28:07;7.35;;;4.82;;
68310;SDS011;55157;51.036;17.058;2023-08-21T06:30:33;8.32;;;4.20;;
68310;SDS011;55157;51.036;17.058;2023-08-21T06:32:59;5.40;;;4.30;;
68310;SDS011;55157;51.036;17.058;2023-08-21T06:35:24;4.22;;;3.83;;
68310;SDS011;55157;51.036;17.058;2023-08-21T06:37:49;9.13;;;4.50;;
68310;SDS011;55157;51.036;17.058;2023-08-21T06:40:14;5.75;;;4.28;;
68310;SDS011;55157;51.036;17.058;2023-08-21T06:42:40;7.47;;;4.43;;
68310;SDS011;55157;51.036;17.058;2023-08-21T06:45:05;8.07;;;4.40;;
68310;SDS011;55157;51.036;17.058;2023-08-21T06:47:32;5.63;;;4.30;;
68310;SDS011;55157;51.036;17.058;2023-08-21T06:49:57;4.97;;;4.03;;
68310;SDS011;55157;51.036;17.058;2023-08-21T06:52:22;7.80;;;4.13;;
68310;SDS011;55157;51.036;17.058;2023-08-21T06:54:48;6.32;;;3.40;;
68310;SDS011;55157;51.036;17.058;2023-08-21T06:57:13;8.05;;;3.67;;
68310;SDS011;55157;51.036;17.058;2023-08-21T06:59:38;5.32;;;4.03;;
68310;SDS011;55157;51.036;17.058;2023-08-21T07:02:04;6.50;;;4.73;;
68310;SDS011;55157;51.036;17.058;2023-08-21T07:04:30;7.72;;;3.88;;
68310;SDS011;55157;51.036;17.058;2023-08-21T07:06:55;7.53;;;4.20;;
68310;SDS011;55157;51.036;17.058;2023-08-21T07:09:21;6.83;;;4.43;;
68310;SDS011;55157;51.036;17.058;2023-08-21T07:11:46;6.70;;;4.10;;
68310;SDS011;55157;51.036;17.058;2023-08-21T07:14:11;5.77;;;4.30;;
68310;SDS011;55157;51.036;17.058;2023-08-21T07:16:36;5.32;;;4.80;;
68310;SDS011;55157;51.036;17.058;2023-08-21T07:19:02;7.43;;;4.27;;
68310;SDS011;55157;51.036;17.058;2023-08-21T07:21:28;8.50;;;4.63;;
68310;SDS011;55157;51.036;17.058;2023-08-21T07:23:54;7.82;;;4.07;;
68310;SDS011;55157;51.036;17.058;2023-08-21T07:26:19;5.60;;;4.03;;
68310;SDS011;55157;51.036;17.058;2023-08-21T07:28:44;6.27;;;4.20;;
68310;SDS011;55157;51.036;17.058;2023-08-21T07:31:09;4.93;;;4.30;;
68310;SDS011;55157;51.036;17.058;2023-08-21T07:33:35;14.85;;;4.90;;
68310;SDS011;55157;51.036;17.058;2023-08-21T07:36:00;10.60;;;5.68;;
68310;SDS011;55157;51.036;17.058;2023-08-21T07:38:27;8.80;;;4.22;;
68310;SDS011;55157;51.036;17.058;2023-08-21T07:41:01;4.68;;;3.90;;
68310;SDS011;55157;51.036;17.058;2023-08-21T07:43:26;6.00;;;3.60;;
68310;SDS011;55157;51.036;17.058;2023-08-21T07:45:52;5.28;;;3.83;;
68310;SDS011;55157;51.036;17.058;2023-08-21T07:48:17;8.37;;;3.77;;
68310;SDS011;55157;51.036;17.058;2023-08-21T07:50:49;9.73;;;3.93;;
68310;SDS011;55157;51.036;17.058;2023-08-21T07:53:15;8.43;;;3.33;;
68310;SDS011;55157;51.036;17.058;2023-08-21T07:55:41;5.82;;;3.75;;
68310;SDS011;55157;51.036;17.058;2023-08-21T07:58:07;4.35;;;3.15;;
68310;SDS011;55157;51.036;17.058;2023-08-21T08:00:32;7.43;;;4.10;;
68310;SDS011;55157;51.036;17.058;2023-08-21T08:02:57;6.15;;;3.30;;
68310;SDS011;55157;51.036;17.058;2023-08-21T08:05:23;4.75;;;3.42;;
68310;SDS011;55157;51.036;17.058;2023-08-21T08:07:48;5.77;;;3.63;;
68310;SDS011;55157;51.036;17.058;2023-08-21T08:10:13;5.40;;;3.33;;
68310;SDS011;55157;51.036;17.058;2023-08-21T08:12:42;5.03;;;2.58;;
68310;SDS011;55157;51.036;17.058;2023-08-21T08:15:08;8.10;;;3.15;;
68310;SDS011;55157;51.036;17.058;2023-08-21T08:17:34;4.45;;;3.13;;
68310;SDS011;55157;51.036;17.058;2023-08-21T08:19:59;8.97;;;3.07;;
68310;SDS011;55157;51.036;17.058;2023-08-21T08:22:24;4.80;;;2.73;;
68310;SDS011;55157;51.036;17.058;2023-08-21T08:24:49;7.37;;;2.90;;
68310;SDS011;55157;51.036;17.058;2023-08-21T08:27:15;3.67;;;2.20;;
68310;SDS011;55157;51.036;17.058;2023-08-21T08:29:41;6.20;;;2.40;;
68310;SDS011;55157;51.036;17.058;2023-08-21T08:32:07;7.13;;;2.40;;
68310;SDS011;55157;51.036;17.058;2023-08-21T08:34:32;8.82;;;3.00;;
68310;SDS011;55157;51.036;17.058;2023-08-21T08:36:57;3.97;;;2.60;;
68310;SDS011;55157;51.036;17.058;2023-08-21T08:39:23;6.63;;;2.13;;
68310;SDS011;55157;51.036;17.058;2023-08-21T08:41:51;3.47;;;2.45;;
68310;SDS011;55157;51.036;17.058;2023-08-21T08:44:19;6.82;;;2.47;;
68310;SDS011;55157;51.036;17.058;2023-08-21T08:46:46;8.30;;;2.92;;
68310;SDS011;55157;51.036;17.058;2023-08-21T08:49:11;3.92;;;2.53;;
68310;SDS011;55157;51.036;17.058;2023-08-21T08:51:37;8.95;;;2.72;;
68310;SDS011;55157;51.036;17.058;2023-08-21T08:54:02;3.58;;;2.42;;
68310;SDS011;55157;51.036;17.058;2023-08-21T08:56:28;3.15;;;1.92;;
68310;SDS011;55157;51.036;17.058;2023-08-21T08:58:53;5.53;;;2.50;;
68310;SDS011;55157;51.036;17.058;2023-08-21T09:01:18;5.17;;;2.57;;
68310;SDS011;55157;51.036;17.058;2023-08-21T09:03:45;4.60;;;2.60;;
68310;SDS011;55157;51.036;17.058;2023-08-21T09:06:10;4.32;;;2.15;;
68310;SDS011;55157;51.036;17.058;2023-08-21T09:08:36;5.70;;;2.70;;
68310;SDS011;55157;51.036;17.058;2023-08-21T09:11:01;5.23;;;2.90;;
68310;SDS011;55157;51.036;17.058;2023-08-21T09:13:26;5.15;;;2.65;;
68310;SDS011;55157;51.036;17.058;2023-08-21T09:15:53;4.03;;;2.60;;
68310;SDS011;55157;51.036;17.058;2023-08-21T09:18:18;6.38;;;2.10;;
68310;SDS011;55157;51.036;17.058;2023-08-21T09:20:45;6.67;;;2.60;;
68310;SDS011;55157;51.036;17.058;2023-08-21T09:23:12;5.60;;;2.97;;
68310;SDS011;55157;51.036;17.058;2023-08-21T09:25:38;7.82;;;3.33;;
68310;SDS011;55157;51.036;17.058;2023-08-21T09:28:04;4.40;;;2.53;;
68310;SDS011;55157;51.036;17.058;2023-08-21T09:30:29;6.65;;;2.53;;
68310;SDS011;55157;51.036;17.058;2023-08-21T09:32:55;6.47;;;2.40;;
68310;SDS011;55157;51.036;17.058;2023-08-21T09:35:20;8.25;;;2.55;;
68310;SDS011;55157;51.036;17.058;2023-08-21T09:37:47;3.58;;;2.08;;
68310;SDS011;55157;51.036;17.058;2023-08-21T09:40:12;5.50;;;2.80;;
68310;SDS011;55157;51.036;17.058;2023-08-21T09:42:38;4.28;;;3.00;;
68310;SDS011;55157;51.036;17.058;2023-08-21T09:45:04;3.67;;;2.35;;
68310;SDS011;55157;51.036;17.058;2023-08-21T09:47:30;3.95;;;2.47;;
68310;SDS011;55157;51.036;17.058;2023-08-21T09:49:55;4.30;;;2.47;;
68310;SDS011;55157;51.036;17.058;2023-08-21T09:52:20;4.60;;;2.17;;
68310;SDS011;55157;51.036;17.058;2023-08-21T09:54:47;7.60;;;2.80;;
68310;SDS011;55157;51.036;17.058;2023-08-21T09:57:13;5.35;;;3.00;;
68310;SDS011;55157;51.036;17.058;2023-08-21T09:59:39;4.25;;;2.53;;
68310;SDS011;55157;51.036;17.058;2023-08-21T10:02:04;3.72;;;2.42;;
68310;SDS011;55157;51.036;17.058;2023-08-21T10:04:30;3.85;;;2.35;;
68310;SDS011;55157;51.036;17.058;2023-08-21T10:06:56;5.38;;;2.50;;
68310;SDS011;55157;51.036;17.058;2023-08-21T10:09:23;5.60;;;2.13;;
68310;SDS011;55157;51.036;17.058;2023-08-21T10:11:49;4.75;;;2.60;;
68310;SDS011;55157;51.036;17.058;2023-08-21T10:14:16;6.45;;;2.80;;
68310;SDS011;55157;51.036;17.058;2023-08-21T10:16:41;4.85;;;2.45;;
68310;SDS011;55157;51.036;17.058;2023-08-21T10:19:07;4.93;;;3.33;;
68310;SDS011;55157;51.036;17.058;2023-08-21T10:21:34;13.07;;;2.33;;
68310;SDS011;55157;51.036;17.058;2023-08-21T10:23:59;4.70;;;2.42;;
68310;SDS011;55157;51.036;17.058;2023-08-21T10:26:24;7.65;;;2.45;;
68310;SDS011;55157;51.036;17.058;2023-08-21T10:28:52;4.88;;;2.58;;
68310;SDS011;55157;51.036;17.058;2023-08-21T10:31:31;4.80;;;2.30;;
68310;SDS011;55157;51.036;17.058;2023-08-21T10:33:56;7.32;;;2.50;;
68310;SDS011;55157;51.036;17.058;2023-08-21T10:36:38;11.18;;;3.75;;
68310;SDS011;55157;51.036;17.058;2023-08-21T10:39:03;4.03;;;2.22;;
68310;SDS011;55157;51.036;17.058;2023-08-21T10:41:29;4.25;;;2.40;;
68310;SDS011;55157;51.036;17.058;2023-08-21T10:43:55;3.73;;;2.10;;
68310;SDS011;55157;51.036;17.058;2023-08-21T10:46:21;5.72;;;2.83;;
68310;SDS011;55157;51.036;17.058;2023-08-21T10:48:46;4.43;;;2.10;;
68310;SDS011;55157;51.036;17.058;2023-08-21T10:51:11;9.82;;;2.50;;
68310;SDS011;55157;51.036;17.058;2023-08-21T10:53:37;3.22;;;2.17;;
68310;SDS011;55157;51.036;17.058;2023-08-21T10:56:02;4.87;;;2.30;;
68310;SDS011;55157;51.036;17.058;2023-08-21T10:58:28;2.90;;;2.38;;
68310;SDS011;55157;51.036;17.058;2023-08-21T11:00:58;5.20;;;2.53;;
68310;SDS011;55157;51.036;17.058;2023-08-21T11:03:23;6.95;;;2.63;;
68310;SDS011;55157;51.036;17.058;2023-08-21T11:05:59;5.47;;;2.70;;
68310;SDS011;55157;51.036;17.058;2023-08-21T11:08:24;4.25;;;2.53;;
68310;SDS011;55157;51.036;17.058;2023-08-21T11:10:49;7.13;;;2.27;;
68310;SDS011;55157;51.036;17.058;2023-08-21T11:13:15;4.63;;;2.23;;
68310;SDS011;55157;51.036;17.058;2023-08-21T11:15:40;6.47;;;2.50;;
68310;SDS011;55157;51.036;17.058;2023-08-21T11:18:07;4.97;;;2.90;;
68310;SDS011;55157;51.036;17.058;2023-08-21T11:20:32;4.93;;;2.15;;
68310;SDS011;55157;51.036;17.058;2023-08-21T11:22:58;4.68;;;2.50;;
68310;SDS011;55157;51.036;17.058;2023-08-21T11:25:23;5.67;;;2.00;;
68310;SDS011;55157;51.036;17.058;2023-08-21T11:27:48;4.50;;;2.28;;
68310;SDS011;55157;51.036;17.058;2023-08-21T11:30:14;2.60;;;1.60;;
68310;SDS011;55157;51.036;17.058;2023-08-21T11:32:39;6.17;;;2.80;;
68310;SDS011;55157;51.036;17.058;2023-08-21T11:35:06;5.43;;;4.47;;
68310;SDS011;55157;51.036;17.058;2023-08-21T11:37:31;3.20;;;2.20;;
68310;SDS011;55157;51.036;17.058;2023-08-21T11:39:57;7.40;;;1.90;;
68310;SDS011;55157;51.036;17.058;2023-08-21T11:42:28;3.63;;;1.48;;
68310;SDS011;55157;51.036;17.058;2023-08-21T11:44:53;4.43;;;2.50;;
68310;SDS011;55157;51.036;17.058;2023-08-21T11:47:19;4.05;;;1.90;;
68310;SDS011;55157;51.036;17.058;2023-08-21T11:49:45;3.72;;;1.90;;
68310;SDS011;55157;51.036;17.058;2023-08-21T11:52:12;3.90;;;1.70;;
68310;SDS011;55157;51.036;17.058;2023-08-21T11:54:38;5.13;;;2.75;;
68310;SDS011;55157;51.036;17.058;2023-08-21T11:57:04;3.65;;;1.98;;
68310;SDS011;55157;51.036;17.058;2023-08-21T11:59:30;2.75;;;1.63;;
68310;SDS011;55157;51.036;17.058;2023-08-21T12:01:55;2.23;;;1.50;;
68310;SDS011;55157;51.036;17.058;2023-08-21T12:04:20;4.17;;;1.90;;
68310;SDS011;55157;51.036;17.058;2023-08-21T12:06:45;5.93;;;1.70;;
68310;SDS011;55157;51.036;17.058;2023-08-21T12:09:12;8.40;;;2.15;;
68310;SDS011;55157;51.036;17.058;2023-08-21T12:11:37;6.35;;;2.47;;
68310;SDS011;55157;51.036;17.058;2023-08-21T12:14:03;4.83;;;1.80;;
68310;SDS011;55157;51.036;17.058;2023-08-21T12:16:28;5.87;;;2.30;;
68310;SDS011;55157;51.036;17.058;2023-08-21T12:18:53;3.00;;;2.00;;
68310;SDS011;55157;51.036;17.058;2023-08-21T12:21:18;5.27;;;1.97;;
68310;SDS011;55157;51.036;17.058;2023-08-21T12:23:44;7.33;;;2.20;;
68310;SDS011;55157;51.036;17.058;2023-08-21T12:26:10;6.13;;;1.70;;
68310;SDS011;55157;51.036;17.058;2023-08-21T12:28:35;3.50;;;2.08;;
68310;SDS011;55157;51.036;17.058;2023-08-21T12:31:01;6.67;;;2.17;;
68310;SDS011;55157;51.036;17.058;2023-08-21T12:33:26;6.23;;;2.40;;
68310;SDS011;55157;51.036;17.058;2023-08-21T12:35:51;7.03;;;2.10;;
68310;SDS011;55157;51.036;17.058;2023-08-21T12:38:16;4.40;;;2.20;;
68310;SDS011;55157;51.036;17.058;2023-08-21T12:40:42;4.50;;;2.27;;
68310;SDS011;55157;51.036;17.058;2023-08-21T12:43:08;2.67;;;1.93;;
68310;SDS011;55157;51.036;17.058;2023-08-21T12:45:35;6.35;;;2.40;;
68310;SDS011;55157;51.036;17.058;2023-08-21T12:48:00;3.70;;;2.40;;
68310;SDS011;55157;51.036;17.058;2023-08-21T12:50:26;4.40;;;3.27;;
68310;SDS011;55157;51.036;17.058;2023-08-21T12:52:51;4.40;;;2.30;;
68310;SDS011;55157;51.036;17.058;2023-08-21T12:55:16;4.00;;;2.27;;
68310;SDS011;55157;51.036;17.058;2023-08-21T12:57:41;5.03;;;2.30;;
68310;SDS011;55157;51.036;17.058;2023-08-21T13:00:08;4.30;;;2.30;;
68310;SDS011;55157;51.036;17.058;2023-08-21T13:02:34;6.35;;;2.40;;
68310;SDS011;55157;51.036;17.058;2023-08-21T13:04:59;6.17;;;2.50;;
68310;SDS011;55157;51.036;17.058;2023-08-21T13:07:24;3.03;;;2.23;;
68310;SDS011;55157;51.036;17.058;2023-08-21T13:09:49;4.63;;;3.00;;
68310;SDS011;55157;51.036;17.058;2023-08-21T13:12:15;4.43;;;2.47;;
68310;SDS011;55157;51.036;17.058;2023-08-21T13:14:40;4.63;;;2.60;;
68310;SDS011;55157;51.036;17.058;2023-08-21T13:17:07;3.53;;;2.67;;
68310;SDS011;55157;51.036;17.058;2023-08-21T13:19:32;7.60;;;2.67;;
68310;SDS011;55157;51.036;17.058;2023-08-21T13:21:57;6.00;;;3.13;;
68310;SDS011;55157;51.036;17.058;2023-08-21T13:24:22;5.07;;;2.43;;
68310;SDS011;55157;51.036;17.058;2023-08-21T13:26:48;5.97;;;3.33;;
68310;SDS011;55157;51.036;17.058;2023-08-21T13:29:13;5.37;;;2.73;;
68310;SDS011;55157;51.036;17.058;2023-08-21T13:31:38;3.50;;;2.70;;
68310;SDS011;55157;51.036;17.058;2023-08-21T13:34:05;5.47;;;2.80;;
68310;SDS011;55157;51.036;17.058;2023-08-21T13:36:30;3.90;;;2.88;;
68310;SDS011;55157;51.036;17.058;2023-08-21T13:38:55;3.70;;;2.70;;
68310;SDS011;55157;51.036;17.058;2023-08-21T13:41:21;4.05;;;2.70;;
68310;SDS011;55157;51.036;17.058;2023-08-21T13:43:46;3.50;;;2.57;;
68310;SDS011;55157;51.036;17.058;2023-08-21T13:46:11;3.30;;;2.70;;
68310;SDS011;55157;51.036;17.058;2023-08-21T13:48:36;10.10;;;2.90;;
68310;SDS011;55157;51.036;17.058;2023-08-21T13:51:03;4.30;;;2.53;;
68310;SDS011;55157;51.036;17.058;2023-08-21T13:53:28;3.88;;;2.35;;
68310;SDS011;55157;51.036;17.058;2023-08-21T13:55:53;4.13;;;2.80;;
68310;SDS011;55157;51.036;17.058;2023-08-21T13:58:19;5.03;;;2.60;;
68310;SDS011;55157;51.036;17.058;2023-08-21T14:00:44;3.10;;;2.37;;
68310;SDS011;55157;51.036;17.058;2023-08-21T14:03:09;3.93;;;2.67;;
68310;SDS011;55157;51.036;17.058;2023-08-21T14:05:34;6.55;;;2.60;;
68310;SDS011;55157;51.036;17.058;2023-08-21T14:08:01;4.05;;;2.30;;
68310;SDS011;55157;51.036;17.058;2023-08-21T14:10:27;3.85;;;2.05;;
68310;SDS011;55157;51.036;17.058;2023-08-21T14:12:52;5.33;;;2.20;;
68310;SDS011;55157;51.036;17.058;2023-08-21T14:15:17;3.90;;;2.70;;
68310;SDS011;55157;51.036;17.058;2023-08-21T14:17:42;11.93;;;2.70;;